sensor_id;sensor_type;location;lat;lon;timestamp;temperature;humidity
41922;DHT22;27609;51.002;5.354;2022-08-30T00:00:18;18.00;99.90
41922;DHT22;27609;51.002;5.354;2022-08-30T00:03:03;18.10;99.90
41922;DHT22;27609;51.002;5.354;2022-08-30T00:05:31;18.20;99.90
41922;DHT22;27609;51.002;5.354;2022-08-30T00:07:57;18.20;99.90
41922;DHT22;27609;51.002;5.354;2022-08-30T00:10:23;18.30;99.90
41922;DHT22;27609;51.002;5.354;2022-08-30T00:12:49;18.30;99.90
41922;DHT22;27609;51.002;5.354;2022-08-30T00:15:16;18.50;99.90
41922;DHT22;27609;51.002;5.354;2022-08-30T00:17:48;18.40;99.90
41922;DHT22;27609;51.002;5.354;2022-08-30T00:20:18;18.40;99.90
41922;DHT22;27609;51.002;5.354;2022-08-30T00:22:45;18.50;99.90
41922;DHT22;27609;51.002;5.354;2022-08-30T00:25:11;18.40;99.90
41922;DHT22;27609;51.002;5.354;2022-08-30T00:27:39;18.50;99.90
41922;DHT22;27609;51.002;5.354;2022-08-30T00:30:09;18.50;99.90
41922;DHT22;27609;51.002;5.354;2022-08-30T00:32:35;18.60;99.90
41922;DHT22;27609;51.002;5.354;2022-08-30T00:35:01;18.60;99.90
41922;DHT22;27609;51.002;5.354;2022-08-30T00:37:27;18.60;99.90
41922;DHT22;27609;51.002;5.354;2022-08-30T00:39:53;18.10;99.90
41922;DHT22;27609;51.002;5.354;2022-08-30T00:42:20;18.10;99.90
41922;DHT22;27609;51.002;5.354;2022-08-30T00:44:46;18.30;99.90
41922;DHT22;27609;51.002;5.354;2022-08-30T00:47:12;18.40;99.90
41922;DHT22;27609;51.002;5.354;2022-08-30T00:49:41;18.40;99.90
41922;DHT22;27609;51.002;5.354;2022-08-30T00:52:08;18.50;99.90
41922;DHT22;27609;51.002;5.354;2022-08-30T00:54:36;18.50;99.90
41922;DHT22;27609;51.002;5.354;2022-08-30T00:57:03;18.40;99.90
41922;DHT22;27609;51.002;5.354;2022-08-30T00:59:30;18.50;99.90
41922;DHT22;27609;51.002;5.354;2022-08-30T01:01:58;18.60;99.90
41922;DHT22;27609;51.002;5.354;2022-08-30T01:04:25;18.60;99.90
41922;DHT22;27609;51.002;5.354;2022-08-30T01:06:54;18.60;99.90
41922;DHT22;27609;51.002;5.354;2022-08-30T01:09:20;18.60;99.90
41922;DHT22;27609;51.002;5.354;2022-08-30T01:11:46;18.60;99.90
41922;DHT22;27609;51.002;5.354;2022-08-30T01:14:13;18.60;99.90
41922;DHT22;27609;51.002;5.354;2022-08-30T01:16:40;18.50;99.90
41922;DHT22;27609;51.002;5.354;2022-08-30T01:21:56;18.60;99.90
41922;DHT22;27609;51.002;5.354;2022-08-30T01:24:27;18.50;99.90
41922;DHT22;27609;51.002;5.354;2022-08-30T01:26:55;18.10;99.90
41922;DHT22;27609;51.002;5.354;2022-08-30T01:29:22;18.10;99.90
41922;DHT22;27609;51.002;5.354;2022-08-30T01:31:50;18.10;99.90
41922;DHT22;27609;51.002;5.354;2022-08-30T01:34:16;18.00;99.90
41922;DHT22;27609;51.002;5.354;2022-08-30T01:36:43;18.00;99.90
41922;DHT22;27609;51.002;5.354;2022-08-30T01:39:15;18.10;99.90
41922;DHT22;27609;51.002;5.354;2022-08-30T01:41:43;18.20;99.90
41922;DHT22;27609;51.002;5.354;2022-08-30T01:44:11;18.10;99.90
41922;DHT22;27609;51.002;5.354;2022-08-30T01:46:40;18.10;99.90
41922;DHT22;27609;51.002;5.354;2022-08-30T01:49:09;18.10;99.90
41922;DHT22;27609;51.002;5.354;2022-08-30T01:51:38;18.20;99.90
41922;DHT22;27609;51.002;5.354;2022-08-30T01:54:04;18.20;99.90
41922;DHT22;27609;51.002;5.354;2022-08-30T01:56:33;18.10;99.90
41922;DHT22;27609;51.002;5.354;2022-08-30T01:58:58;17.90;99.90
41922;DHT22;27609;51.002;5.354;2022-08-30T02:01:26;17.90;99.90
41922;DHT22;27609;51.002;5.354;2022-08-30T02:03:56;17.80;99.90
41922;DHT22;27609;51.002;5.354;2022-08-30T02:06:23;17.70;99.90
41922;DHT22;27609;51.002;5.354;2022-08-30T02:08:49;17.60;99.90
41922;DHT22;27609;51.002;5.354;2022-08-30T02:11:15;17.50;99.90
41922;DHT22;27609;51.002;5.354;2022-08-30T02:13:43;17.40;99.90
41922;DHT22;27609;51.002;5.354;2022-08-30T02:16:16;17.60;99.90
41922;DHT22;27609;51.002;5.354;2022-08-30T02:18:43;17.70;99.90
41922;DHT22;27609;51.002;5.354;2022-08-30T02:21:09;17.70;99.90
41922;DHT22;27609;51.002;5.354;2022-08-30T02:23:36;17.80;99.90
41922;DHT22;27609;51.002;5.354;2022-08-30T02:26:03;17.90;99.90
41922;DHT22;27609;51.002;5.354;2022-08-30T02:28:28;17.90;99.90
41922;DHT22;27609;51.002;5.354;2022-08-30T02:30:57;18.00;99.90
41922;DHT22;27609;51.002;5.354;2022-08-30T02:33:23;18.10;99.90
41922;DHT22;27609;51.002;5.354;2022-08-30T02:35:49;17.80;99.90
41922;DHT22;27609;51.002;5.354;2022-08-30T02:38:15;17.70;99.90
41922;DHT22;27609;51.002;5.354;2022-08-30T02:40:40;17.60;99.90
41922;DHT22;27609;51.002;5.354;2022-08-30T02:43:06;17.70;99.90
41922;DHT22;27609;51.002;5.354;2022-08-30T02:45:32;17.60;99.90
41922;DHT22;27609;51.002;5.354;2022-08-30T02:47:57;17.70;99.90
41922;DHT22;27609;51.002;5.354;2022-08-30T02:50:23;17.90;99.90
41922;DHT22;27609;51.002;5.354;2022-08-30T02:52:50;18.10;99.90
41922;DHT22;27609;51.002;5.354;2022-08-30T02:55:16;17.90;99.90
41922;DHT22;27609;51.002;5.354;2022-08-30T02:57:42;17.90;99.90
41922;DHT22;27609;51.002;5.354;2022-08-30T03:00:11;17.90;99.90
41922;DHT22;27609;51.002;5.354;2022-08-30T03:02:37;17.90;99.90
41922;DHT22;27609;51.002;5.354;2022-08-30T03:05:05;17.70;99.90
41922;DHT22;27609;51.002;5.354;2022-08-30T03:07:32;17.50;99.90
41922;DHT22;27609;51.002;5.354;2022-08-30T03:09:58;17.50;99.90
41922;DHT22;27609;51.002;5.354;2022-08-30T03:12:24;17.60;99.90
41922;DHT22;27609;51.002;5.354;2022-08-30T03:14:50;17.60;99.90
41922;DHT22;27609;51.002;5.354;2022-08-30T03:17:16;17.60;99.90
41922;DHT22;27609;51.002;5.354;2022-08-30T03:19:42;17.70;99.90
41922;DHT22;27609;51.002;5.354;2022-08-30T03:22:09;17.70;99.90
41922;DHT22;27609;51.002;5.354;2022-08-30T03:24:37;17.80;99.90
41922;DHT22;27609;51.002;5.354;2022-08-30T03:27:03;18.00;99.90
41922;DHT22;27609;51.002;5.354;2022-08-30T03:29:29;17.90;99.90
41922;DHT22;27609;51.002;5.354;2022-08-30T03:31:56;17.70;99.90
41922;DHT22;27609;51.002;5.354;2022-08-30T03:34:23;17.40;99.90
41922;DHT22;27609;51.002;5.354;2022-08-30T03:36:51;17.30;99.90
41922;DHT22;27609;51.002;5.354;2022-08-30T03:39:17;17.20;99.90
41922;DHT22;27609;51.002;5.354;2022-08-30T03:41:42;17.30;99.90
41922;DHT22;27609;51.002;5.354;2022-08-30T03:44:08;17.50;99.90
41922;DHT22;27609;51.002;5.354;2022-08-30T03:46:34;17.50;99.90
41922;DHT22;27609;51.002;5.354;2022-08-30T03:48:59;17.50;99.90
41922;DHT22;27609;51.002;5.354;2022-08-30T03:51:25;17.50;99.90
41922;DHT22;27609;51.002;5.354;2022-08-30T03:53:51;17.60;99.90
41922;DHT22;27609;51.002;5.354;2022-08-30T03:56:17;17.80;99.90
41922;DHT22;27609;51.002;5.354;2022-08-30T03:58:43;17.70;99.90
41922;DHT22;27609;51.002;5.354;2022-08-30T04:01:09;17.80;99.90
41922;DHT22;27609;51.002;5.354;2022-08-30T04:03:35;17.80;99.90
41922;DHT22;27609;51.002;5.354;2022-08-30T04:06:01;17.60;99.90
41922;DHT22;27609;51.002;5.354;2022-08-30T04:08:27;17.60;99.90
41922;DHT22;27609;51.002;5.354;2022-08-30T04:10:54;17.70;99.90
41922;DHT22;27609;51.002;5.354;2022-08-30T04:13:21;17.70;99.90
41922;DHT22;27609;51.002;5.354;2022-08-30T04:15:46;17.90;99.90
41922;DHT22;27609;51.002;5.354;2022-08-30T04:18:12;17.80;99.90
41922;DHT22;27609;51.002;5.354;2022-08-30T04:20:38;17.80;99.90
41922;DHT22;27609;51.002;5.354;2022-08-30T04:23:04;17.70;99.90
41922;DHT22;27609;51.002;5.354;2022-08-30T04:25:36;17.70;99.90
41922;DHT22;27609;51.002;5.354;2022-08-30T04:28:02;17.60;99.90
41922;DHT22;27609;51.002;5.354;2022-08-30T04:30:28;17.60;99.90
41922;DHT22;27609;51.002;5.354;2022-08-30T04:32:54;17.50;99.90
41922;DHT22;27609;51.002;5.354;2022-08-30T04:35:20;17.70;99.90
41922;DHT22;27609;51.002;5.354;2022-08-30T04:37:45;17.70;99.90
41922;DHT22;27609;51.002;5.354;2022-08-30T04:40:11;17.60;99.90
41922;DHT22;27609;51.002;5.354;2022-08-30T04:42:38;17.60;99.90
41922;DHT22;27609;51.002;5.354;2022-08-30T04:45:07;17.60;99.90
41922;DHT22;27609;51.002;5.354;2022-08-30T04:47:34;17.40;99.90
41922;DHT22;27609;51.002;5.354;2022-08-30T04:50:00;17.40;99.90
41922;DHT22;27609;51.002;5.354;2022-08-30T04:52:28;17.50;99.90
41922;DHT22;27609;51.002;5.354;2022-08-30T04:54:54;17.50;99.90
41922;DHT22;27609;51.002;5.354;2022-08-30T04:57:21;17.30;99.90
41922;DHT22;27609;51.002;5.354;2022-08-30T04:59:47;17.50;99.90
41922;DHT22;27609;51.002;5.354;2022-08-30T05:02:13;17.40;99.90
41922;DHT22;27609;51.002;5.354;2022-08-30T05:04:38;17.20;99.90
41922;DHT22;27609;51.002;5.354;2022-08-30T05:07:28;17.20;99.90
41922;DHT22;27609;51.002;5.354;2022-08-30T05:09:53;17.10;99.90
41922;DHT22;27609;51.002;5.354;2022-08-30T05:12:19;17.10;99.90
41922;DHT22;27609;51.002;5.354;2022-08-30T05:14:47;17.10;99.90
41922;DHT22;27609;51.002;5.354;2022-08-30T05:17:12;17.10;99.90
41922;DHT22;27609;51.002;5.354;2022-08-30T05:19:38;17.20;99.90
41922;DHT22;27609;51.002;5.354;2022-08-30T05:22:04;17.00;99.90
41922;DHT22;27609;51.002;5.354;2022-08-30T05:24:29;17.00;99.90
41922;DHT22;27609;51.002;5.354;2022-08-30T05:26:56;17.10;99.90
41922;DHT22;27609;51.002;5.354;2022-08-30T05:29:22;17.30;99.90
41922;DHT22;27609;51.002;5.354;2022-08-30T05:31:48;17.40;99.90
41922;DHT22;27609;51.002;5.354;2022-08-30T05:34:13;17.30;99.90
41922;DHT22;27609;51.002;5.354;2022-08-30T05:36:39;17.30;99.90
41922;DHT22;27609;51.002;5.354;2022-08-30T05:39:06;17.40;99.90
41922;DHT22;27609;51.002;5.354;2022-08-30T05:41:32;17.30;99.90
41922;DHT22;27609;51.002;5.354;2022-08-30T05:44:03;17.20;99.90
41922;DHT22;27609;51.002;5.354;2022-08-30T05:46:30;17.30;99.90
41922;DHT22;27609;51.002;5.354;2022-08-30T05:48:58;17.30;99.90
41922;DHT22;27609;51.002;5.354;2022-08-30T05:51:26;17.20;99.90
41922;DHT22;27609;51.002;5.354;2022-08-30T05:53:54;17.30;99.90
41922;DHT22;27609;51.002;5.354;2022-08-30T05:56:23;17.20;99.90
41922;DHT22;27609;51.002;5.354;2022-08-30T05:58:50;17.40;99.90
41922;DHT22;27609;51.002;5.354;2022-08-30T06:01:26;17.50;99.90
41922;DHT22;27609;51.002;5.354;2022-08-30T06:03:53;17.70;99.90
41922;DHT22;27609;51.002;5.354;2022-08-30T06:06:19;17.80;99.90
41922;DHT22;27609;51.002;5.354;2022-08-30T06:08:45;18.00;99.90
41922;DHT22;27609;51.002;5.354;2022-08-30T06:11:14;18.00;99.90
41922;DHT22;27609;51.002;5.354;2022-08-30T06:13:40;18.30;99.90
41922;DHT22;27609;51.002;5.354;2022-08-30T06:16:06;18.50;99.90
41922;DHT22;27609;51.002;5.354;2022-08-30T06:18:35;18.70;99.90
41922;DHT22;27609;51.002;5.354;2022-08-30T06:21:00;18.50;99.90
41922;DHT22;27609;51.002;5.354;2022-08-30T06:23:26;18.60;99.90
41922;DHT22;27609;51.002;5.354;2022-08-30T06:25:53;18.70;99.90
41922;DHT22;27609;51.002;5.354;2022-08-30T06:28:18;19.20;99.90
41922;DHT22;27609;51.002;5.354;2022-08-30T06:30:44;19.50;99.90
41922;DHT22;27609;51.002;5.354;2022-08-30T06:33:10;19.70;99.90
41922;DHT22;27609;51.002;5.354;2022-08-30T06:35:36;19.90;99.90
41922;DHT22;27609;51.002;5.354;2022-08-30T06:38:02;20.20;99.90
41922;DHT22;27609;51.002;5.354;2022-08-30T06:40:28;20.10;99.90
41922;DHT22;27609;51.002;5.354;2022-08-30T06:42:54;20.20;99.90
41922;DHT22;27609;51.002;5.354;2022-08-30T06:45:20;20.50;99.90
41922;DHT22;27609;51.002;5.354;2022-08-30T06:47:46;20.50;99.90
41922;DHT22;27609;51.002;5.354;2022-08-30T06:50:14;20.40;99.90
41922;DHT22;27609;51.002;5.354;2022-08-30T06:52:42;20.20;99.90
41922;DHT22;27609;51.002;5.354;2022-08-30T06:55:10;20.30;99.90
41922;DHT22;27609;51.002;5.354;2022-08-30T06:57:36;19.90;99.90
41922;DHT22;27609;51.002;5.354;2022-08-30T07:00:04;20.00;99.90
41922;DHT22;27609;51.002;5.354;2022-08-30T07:02:30;19.90;99.90
41922;DHT22;27609;51.002;5.354;2022-08-30T07:04:56;20.20;99.90
41922;DHT22;27609;51.002;5.354;2022-08-30T07:07:23;20.10;99.90
41922;DHT22;27609;51.002;5.354;2022-08-30T07:09:52;20.40;99.90
41922;DHT22;27609;51.002;5.354;2022-08-30T07:12:18;20.90;99.90
41922;DHT22;27609;51.002;5.354;2022-08-30T07:14:44;21.40;99.90
41922;DHT22;27609;51.002;5.354;2022-08-30T07:17:09;21.60;99.90
41922;DHT22;27609;51.002;5.354;2022-08-30T07:19:53;21.50;99.90
41922;DHT22;27609;51.002;5.354;2022-08-30T07:22:20;22.20;99.90
41922;DHT22;27609;51.002;5.354;2022-08-30T07:24:46;22.70;99.90
41922;DHT22;27609;51.002;5.354;2022-08-30T07:27:13;23.00;99.90
41922;DHT22;27609;51.002;5.354;2022-08-30T07:29:39;23.10;99.90
41922;DHT22;27609;51.002;5.354;2022-08-30T07:32:05;22.90;99.90
41922;DHT22;27609;51.002;5.354;2022-08-30T07:34:34;22.90;99.90
41922;DHT22;27609;51.002;5.354;2022-08-30T07:37:00;23.20;99.90
41922;DHT22;27609;51.002;5.354;2022-08-30T07:39:25;23.10;99.90
41922;DHT22;27609;51.002;5.354;2022-08-30T07:41:51;23.50;99.90
41922;DHT22;27609;51.002;5.354;2022-08-30T07:44:16;23.70;99.90
41922;DHT22;27609;51.002;5.354;2022-08-30T07:46:42;24.00;99.90
41922;DHT22;27609;51.002;5.354;2022-08-30T07:49:09;24.70;99.90
41922;DHT22;27609;51.002;5.354;2022-08-30T07:51:37;24.50;99.90
41922;DHT22;27609;51.002;5.354;2022-08-30T07:54:03;24.40;99.90
41922;DHT22;27609;51.002;5.354;2022-08-30T07:56:28;24.50;99.90
41922;DHT22;27609;51.002;5.354;2022-08-30T07:58:54;24.50;99.90
41922;DHT22;27609;51.002;5.354;2022-08-30T08:01:21;24.40;99.90
41922;DHT22;27609;51.002;5.354;2022-08-30T08:03:49;24.70;99.90
41922;DHT22;27609;51.002;5.354;2022-08-30T08:06:16;25.10;99.90
41922;DHT22;27609;51.002;5.354;2022-08-30T08:08:42;25.40;99.90
41922;DHT22;27609;51.002;5.354;2022-08-30T08:11:19;25.40;99.90
41922;DHT22;27609;51.002;5.354;2022-08-30T08:13:48;25.00;99.90
41922;DHT22;27609;51.002;5.354;2022-08-30T08:16:14;25.20;99.90
41922;DHT22;27609;51.002;5.354;2022-08-30T08:18:40;26.50;99.90
41922;DHT22;27609;51.002;5.354;2022-08-30T08:21:05;26.40;99.90
41922;DHT22;27609;51.002;5.354;2022-08-30T08:23:31;27.60;99.90
41922;DHT22;27609;51.002;5.354;2022-08-30T08:25:57;28.60;98.80
41922;DHT22;27609;51.002;5.354;2022-08-30T08:28:24;29.00;98.70
41922;DHT22;27609;51.002;5.354;2022-08-30T08:30:50;29.50;96.40
41922;DHT22;27609;51.002;5.354;2022-08-30T08:33:17;29.80;96.20
41922;DHT22;27609;51.002;5.354;2022-08-30T08:35:43;30.00;94.90
41922;DHT22;27609;51.002;5.354;2022-08-30T08:38:08;30.40;93.90
41922;DHT22;27609;51.002;5.354;2022-08-30T08:41:12;31.50;92.60
41922;DHT22;27609;51.002;5.354;2022-08-30T08:43:42;31.60;91.80
41922;DHT22;27609;51.002;5.354;2022-08-30T08:46:18;32.20;90.50
41922;DHT22;27609;51.002;5.354;2022-08-30T08:48:49;30.80;92.50
41922;DHT22;27609;51.002;5.354;2022-08-30T08:51:19;30.10;92.70
41922;DHT22;27609;51.002;5.354;2022-08-30T08:57:00;28.50;95.50
41922;DHT22;27609;51.002;5.354;2022-08-30T08:59:26;28.80;94.70
41922;DHT22;27609;51.002;5.354;2022-08-30T09:01:55;29.90;94.00
41922;DHT22;27609;51.002;5.354;2022-08-30T09:04:28;30.30;93.10
41922;DHT22;27609;51.002;5.354;2022-08-30T09:06:59;30.90;92.30
41922;DHT22;27609;51.002;5.354;2022-08-30T09:09:34;32.00;90.10
41922;DHT22;27609;51.002;5.354;2022-08-30T09:12:02;32.70;89.50
41922;DHT22;27609;51.002;5.354;2022-08-30T09:14:42;33.00;86.90
41922;DHT22;27609;51.002;5.354;2022-08-30T09:17:12;32.30;88.10
41922;DHT22;27609;51.002;5.354;2022-08-30T09:19:44;33.70;84.80
41922;DHT22;27609;51.002;5.354;2022-08-30T09:24:46;33.60;84.00
41922;DHT22;27609;51.002;5.354;2022-08-30T09:32:42;32.30;84.90
41922;DHT22;27609;51.002;5.354;2022-08-30T09:35:12;31.60;85.60
41922;DHT22;27609;51.002;5.354;2022-08-30T09:37:54;31.70;85.60
41922;DHT22;27609;51.002;5.354;2022-08-30T09:40:37;32.80;85.00
41922;DHT22;27609;51.002;5.354;2022-08-30T09:43:18;33.60;81.90
41922;DHT22;27609;51.002;5.354;2022-08-30T09:45:47;34.20;81.60
41922;DHT22;27609;51.002;5.354;2022-08-30T09:56:17;32.80;81.70
41922;DHT22;27609;51.002;5.354;2022-08-30T09:58:54;34.10;79.60
41922;DHT22;27609;51.002;5.354;2022-08-30T10:01:33;34.50;77.00
41922;DHT22;27609;51.002;5.354;2022-08-30T10:04:43;35.70;75.50
41922;DHT22;27609;51.002;5.354;2022-08-30T10:06:57;36.10;73.70
41922;DHT22;27609;51.002;5.354;2022-08-30T10:09:39;34.40;76.00
41922;DHT22;27609;51.002;5.354;2022-08-30T10:12:23;33.50;76.50
41922;DHT22;27609;51.002;5.354;2022-08-30T10:15:05;33.50;77.50
41922;DHT22;27609;51.002;5.354;2022-08-30T10:17:47;34.10;76.00
41922;DHT22;27609;51.002;5.354;2022-08-30T10:20:20;34.60;75.50
41922;DHT22;27609;51.002;5.354;2022-08-30T10:23:12;33.60;76.60
41922;DHT22;27609;51.002;5.354;2022-08-30T10:25:52;34.30;74.80
41922;DHT22;27609;51.002;5.354;2022-08-30T10:28:56;34.70;74.40
41922;DHT22;27609;51.002;5.354;2022-08-30T10:34:39;34.30;74.60
41922;DHT22;27609;51.002;5.354;2022-08-30T10:37:15;33.50;76.30
41922;DHT22;27609;51.002;5.354;2022-08-30T10:39:49;34.10;73.80
41922;DHT22;27609;51.002;5.354;2022-08-30T10:42:23;34.80;73.30
41922;DHT22;27609;51.002;5.354;2022-08-30T10:45:12;34.90;73.40
41922;DHT22;27609;51.002;5.354;2022-08-30T10:47:43;35.00;72.20
41922;DHT22;27609;51.002;5.354;2022-08-30T10:50:16;34.70;73.10
41922;DHT22;27609;51.002;5.354;2022-08-30T10:52:52;34.60;73.40
41922;DHT22;27609;51.002;5.354;2022-08-30T10:55:27;34.30;72.70
41922;DHT22;27609;51.002;5.354;2022-08-30T10:58:01;34.50;72.40
41922;DHT22;27609;51.002;5.354;2022-08-30T11:00:51;34.10;72.90
41922;DHT22;27609;51.002;5.354;2022-08-30T11:14:25;35.60;70.30
41922;DHT22;27609;51.002;5.354;2022-08-30T11:16:53;35.80;69.20
41922;DHT22;27609;51.002;5.354;2022-08-30T11:21:45;35.00;71.00
41922;DHT22;27609;51.002;5.354;2022-08-30T11:24:21;35.10;69.80
41922;DHT22;27609;51.002;5.354;2022-08-30T11:31:55;35.30;68.60
41922;DHT22;27609;51.002;5.354;2022-08-30T11:37:10;34.50;69.10
41922;DHT22;27609;51.002;5.354;2022-08-30T11:39:59;35.70;67.80
41922;DHT22;27609;51.002;5.354;2022-08-30T11:42:52;36.70;67.60
41922;DHT22;27609;51.002;5.354;2022-08-30T11:48:07;36.90;65.30
41922;DHT22;27609;51.002;5.354;2022-08-30T11:51:26;36.50;64.30
41922;DHT22;27609;51.002;5.354;2022-08-30T11:54:09;35.40;66.00
41922;DHT22;27609;51.002;5.354;2022-08-30T12:05:03;32.80;68.60
41922;DHT22;27609;51.002;5.354;2022-08-30T12:10:35;33.00;68.40
41922;DHT22;27609;51.002;5.354;2022-08-30T12:13:02;33.10;69.40
41922;DHT22;27609;51.002;5.354;2022-08-30T12:15:54;34.50;67.10
41922;DHT22;27609;51.002;5.354;2022-08-30T12:18:58;36.10;64.90
41922;DHT22;27609;51.002;5.354;2022-08-30T12:26:18;32.20;70.70
41922;DHT22;27609;51.002;5.354;2022-08-30T12:28:45;32.80;69.10
41922;DHT22;27609;51.002;5.354;2022-08-30T12:31:16;33.60;68.60
41922;DHT22;27609;51.002;5.354;2022-08-30T12:33:45;34.80;66.30
41922;DHT22;27609;51.002;5.354;2022-08-30T12:36:12;33.30;69.20
41922;DHT22;27609;51.002;5.354;2022-08-30T12:38:38;32.90;69.90
41922;DHT22;27609;51.002;5.354;2022-08-30T12:41:04;32.90;69.70
41922;DHT22;27609;51.002;5.354;2022-08-30T12:46:01;30.90;73.50
41922;DHT22;27609;51.002;5.354;2022-08-30T12:48:33;31.70;73.00
41922;DHT22;27609;51.002;5.354;2022-08-30T12:51:00;34.10;69.30
41922;DHT22;27609;51.002;5.354;2022-08-30T12:53:32;35.40;67.20
41922;DHT22;27609;51.002;5.354;2022-08-30T12:56:09;37.60;64.90
41922;DHT22;27609;51.002;5.354;2022-08-30T12:58:52;38.40;62.40
41922;DHT22;27609;51.002;5.354;2022-08-30T13:06:58;37.60;63.50
41922;DHT22;27609;51.002;5.354;2022-08-30T13:09:35;37.10;64.10
41922;DHT22;27609;51.002;5.354;2022-08-30T13:12:05;35.80;64.30
41922;DHT22;27609;51.002;5.354;2022-08-30T13:14:41;35.30;65.10
41922;DHT22;27609;51.002;5.354;2022-08-30T13:22:41;35.60;64.90
41922;DHT22;27609;51.002;5.354;2022-08-30T13:25:09;34.60;66.60
41922;DHT22;27609;51.002;5.354;2022-08-30T13:27:37;34.70;66.30
41922;DHT22;27609;51.002;5.354;2022-08-30T13:30:14;35.90;64.60
41922;DHT22;27609;51.002;5.354;2022-08-30T13:32:42;36.90;64.50
41922;DHT22;27609;51.002;5.354;2022-08-30T13:35:09;35.60;65.40
41922;DHT22;27609;51.002;5.354;2022-08-30T13:37:36;34.20;66.70
41922;DHT22;27609;51.002;5.354;2022-08-30T13:40:04;33.80;67.30
41922;DHT22;27609;51.002;5.354;2022-08-30T13:42:30;33.20;68.80
41922;DHT22;27609;51.002;5.354;2022-08-30T13:44:55;33.40;68.30
41922;DHT22;27609;51.002;5.354;2022-08-30T13:47:21;33.40;67.90
41922;DHT22;27609;51.002;5.354;2022-08-30T13:49:47;33.40;68.10
41922;DHT22;27609;51.002;5.354;2022-08-30T13:52:21;33.40;68.30
41922;DHT22;27609;51.002;5.354;2022-08-30T13:54:53;33.70;67.90
41922;DHT22;27609;51.002;5.354;2022-08-30T13:57:21;35.10;65.70
41922;DHT22;27609;51.002;5.354;2022-08-30T13:59:47;35.70;64.70
41922;DHT22;27609;51.002;5.354;2022-08-30T14:02:13;35.10;65.50
41922;DHT22;27609;51.002;5.354;2022-08-30T14:04:38;35.30;65.00
41922;DHT22;27609;51.002;5.354;2022-08-30T14:07:04;35.70;65.40
41922;DHT22;27609;51.002;5.354;2022-08-30T14:09:33;36.20;64.90
41922;DHT22;27609;51.002;5.354;2022-08-30T14:11:58;35.80;63.90
41922;DHT22;27609;51.002;5.354;2022-08-30T14:14:24;34.50;65.10
41922;DHT22;27609;51.002;5.354;2022-08-30T14:16:50;33.40;66.70
41922;DHT22;27609;51.002;5.354;2022-08-30T14:19:16;33.30;68.00
41922;DHT22;27609;51.002;5.354;2022-08-30T14:21:43;32.60;68.80
41922;DHT22;27609;51.002;5.354;2022-08-30T14:24:09;31.30;70.80
41922;DHT22;27609;51.002;5.354;2022-08-30T14:26:42;31.40;71.00
41922;DHT22;27609;51.002;5.354;2022-08-30T14:29:14;31.40;71.20
41922;DHT22;27609;51.002;5.354;2022-08-30T14:31:41;32.10;70.90
41922;DHT22;27609;51.002;5.354;2022-08-30T14:34:08;32.10;70.50
41922;DHT22;27609;51.002;5.354;2022-08-30T14:36:36;32.00;70.10
41922;DHT22;27609;51.002;5.354;2022-08-30T14:39:07;31.80;69.90
41922;DHT22;27609;51.002;5.354;2022-08-30T14:41:33;31.90;70.40
41922;DHT22;27609;51.002;5.354;2022-08-30T14:43:58;32.30;70.40
41922;DHT22;27609;51.002;5.354;2022-08-30T14:46:27;32.70;69.50
41922;DHT22;27609;51.002;5.354;2022-08-30T14:48:53;32.50;69.40
41922;DHT22;27609;51.002;5.354;2022-08-30T14:51:21;32.50;70.20
41922;DHT22;27609;51.002;5.354;2022-08-30T14:53:50;32.20;69.80
41922;DHT22;27609;51.002;5.354;2022-08-30T14:56:17;31.20;72.40
41922;DHT22;27609;51.002;5.354;2022-08-30T14:58:43;30.70;73.20
41922;DHT22;27609;51.002;5.354;2022-08-30T15:01:11;31.00;72.60
41922;DHT22;27609;51.002;5.354;2022-08-30T15:03:38;31.10;72.00
41922;DHT22;27609;51.002;5.354;2022-08-30T15:06:05;31.40;71.80
41922;DHT22;27609;51.002;5.354;2022-08-30T15:08:31;31.40;71.90
41922;DHT22;27609;51.002;5.354;2022-08-30T15:10:57;31.50;72.60
41922;DHT22;27609;51.002;5.354;2022-08-30T15:13:24;31.80;72.30
41922;DHT22;27609;51.002;5.354;2022-08-30T15:15:50;31.10;72.90
41922;DHT22;27609;51.002;5.354;2022-08-30T15:18:20;30.90;73.50
41922;DHT22;27609;51.002;5.354;2022-08-30T15:20:47;30.90;72.40
41922;DHT22;27609;51.002;5.354;2022-08-30T15:23:15;29.90;74.30
41922;DHT22;27609;51.002;5.354;2022-08-30T15:25:41;29.70;74.60
41922;DHT22;27609;51.002;5.354;2022-08-30T15:28:08;29.70;75.40
41922;DHT22;27609;51.002;5.354;2022-08-30T15:30:34;29.50;74.70
41922;DHT22;27609;51.002;5.354;2022-08-30T15:32:59;29.20;76.20
41922;DHT22;27609;51.002;5.354;2022-08-30T15:35:25;29.10;75.30
41922;DHT22;27609;51.002;5.354;2022-08-30T15:37:51;28.70;76.80
41922;DHT22;27609;51.002;5.354;2022-08-30T15:40:16;28.70;77.00
41922;DHT22;27609;51.002;5.354;2022-08-30T15:42:42;28.30;77.70
41922;DHT22;27609;51.002;5.354;2022-08-30T15:45:09;28.10;77.80
41922;DHT22;27609;51.002;5.354;2022-08-30T15:47:38;28.10;78.50
41922;DHT22;27609;51.002;5.354;2022-08-30T15:50:05;28.20;77.70
41922;DHT22;27609;51.002;5.354;2022-08-30T15:52:31;28.40;77.60
41922;DHT22;27609;51.002;5.354;2022-08-30T15:54:57;28.50;77.40
41922;DHT22;27609;51.002;5.354;2022-08-30T15:57:23;28.30;76.70
41922;DHT22;27609;51.002;5.354;2022-08-30T15:59:49;28.20;77.40
41922;DHT22;27609;51.002;5.354;2022-08-30T16:02:16;28.20;77.60
41922;DHT22;27609;51.002;5.354;2022-08-30T16:04:41;28.40;78.40
41922;DHT22;27609;51.002;5.354;2022-08-30T16:07:07;28.40;77.90
41922;DHT22;27609;51.002;5.354;2022-08-30T16:09:33;28.50;77.30
41922;DHT22;27609;51.002;5.354;2022-08-30T16:12:00;28.40;77.90
41922;DHT22;27609;51.002;5.354;2022-08-30T16:14:26;28.20;77.10
41922;DHT22;27609;51.002;5.354;2022-08-30T16:16:52;28.10;78.40
41922;DHT22;27609;51.002;5.354;2022-08-30T16:19:18;28.00;78.20
41922;DHT22;27609;51.002;5.354;2022-08-30T16:21:44;27.90;78.60
41922;DHT22;27609;51.002;5.354;2022-08-30T16:24:12;27.80;80.10
41922;DHT22;27609;51.002;5.354;2022-08-30T16:26:40;27.70;80.10
41922;DHT22;27609;51.002;5.354;2022-08-30T16:29:06;27.70;80.40
41922;DHT22;27609;51.002;5.354;2022-08-30T16:31:33;27.60;81.10
41922;DHT22;27609;51.002;5.354;2022-08-30T16:34:00;27.40;81.60
41922;DHT22;27609;51.002;5.354;2022-08-30T16:36:26;27.60;81.10
41922;DHT22;27609;51.002;5.354;2022-08-30T16:38:53;27.60;81.40
41922;DHT22;27609;51.002;5.354;2022-08-30T16:41:19;27.40;81.70
41922;DHT22;27609;51.002;5.354;2022-08-30T16:43:49;27.50;81.50
41922;DHT22;27609;51.002;5.354;2022-08-30T16:46:18;27.30;83.70
41922;DHT22;27609;51.002;5.354;2022-08-30T16:48:45;27.20;82.70
41922;DHT22;27609;51.002;5.354;2022-08-30T16:51:13;27.20;82.10
41922;DHT22;27609;51.002;5.354;2022-08-30T16:53:40;27.20;81.90
41922;DHT22;27609;51.002;5.354;2022-08-30T16:56:14;27.20;82.50
41922;DHT22;27609;51.002;5.354;2022-08-30T16:58:41;27.00;82.00